< Cyclone 198913 1990 Season Cyclone 199002 >
Cyclone 199001 (PEDRO)
General InformationDetailed Track InformationTrack Information on Google MapsList of All Images || ResourceGoogle EarthGE AnimationAtom FeedGeoJSON
Detalied Best Track Wind (Time Zone = UTC)
Year Month Day Hour Lat. Long. Wind (kt) Gust (kt) Direc. of Major Storm Axis Radius of Major Storm Axis (nm) Radius of Minor Storm Axis (nm) Direc. of Major Gale Axis Radius of Major Gale Axis (nm) Radius of Minor Gale Axis (nm) Image
1989 11 6 00 -7.7 97.2 23 -1 symmetric - - symmetric - - Image
1989 11 6 06 -7.3 96.7 27 -1 symmetric - - symmetric - - Image
1989 11 6 12 -6.9 96.5 27 -1 symmetric - - symmetric - - Image
1989 11 6 18 -6.6 96.4 29 -1 symmetric - - symmetric - - Image
1989 11 7 00 -6.5 96.1 31 -1 symmetric - - symmetric - - Image
1989 11 7 06 -6.7 95.5 33 -1 symmetric - - symmetric - - Image
1989 11 7 12 -6.8 94.8 33 -1 symmetric - - symmetric - - Image
1989 11 7 18 -6.9 94.3 35 -1 symmetric - - symmetric - - Image
1989 11 8 00 -6.9 93.8 35 -1 symmetric - - symmetric - - Image
1989 11 8 06 -7.6 93.5 37 -1 symmetric - - symmetric - - Image
1989 11 8 12 -8.3 93.7 37 -1 symmetric - - symmetric - - Image
1989 11 8 18 -8.9 94.0 39 -1 symmetric - - symmetric - - Image
1989 11 9 00 -9.6 94.2 39 -1 symmetric - - symmetric - - Image
1989 11 9 06 -10.2 94.5 39 -1 symmetric - - symmetric - - Image
1989 11 9 12 -10.9 94.9 43 -1 symmetric - - symmetric - - Image
1989 11 9 18 -11.4 95.1 49 -1 symmetric - - symmetric - - Image
1989 11 10 00 -11.9 95.3 56 -1 symmetric - - symmetric - - Image
1989 11 10 06 -12.3 95.5 58 -1 symmetric - - symmetric - - Image
1989 11 10 12 -12.8 95.9 58 -1 symmetric - - symmetric - - Image
1989 11 10 18 -13.2 96.1 56 -1 symmetric - - symmetric - - Image
1989 11 11 00 -13.9 96.1 53 -1 symmetric - - symmetric - - Image
1989 11 11 06 -14.5 96.0 49 -1 symmetric - - symmetric - - Image
1989 11 11 12 -15.4 95.8 47 -1 symmetric - - symmetric - - Image
1989 11 11 18 -16.4 95.6 43 -1 symmetric - - symmetric - - Image
1989 11 12 00 -17.4 95.0 43 -1 symmetric - - symmetric - - Image
1989 11 12 06 -18.3 94.5 41 -1 symmetric - - symmetric - - Image
1989 11 12 12 -19.2 94.4 41 -1 symmetric - - symmetric - - Image
1989 11 12 18 -20.1 94.5 39 -1 symmetric - - symmetric - - Image
1989 11 13 00 -20.6 95.2 39 -1 symmetric - - symmetric - - Image
1989 11 13 06 -20.8 96.3 35 -1 symmetric - - symmetric - - Image
< Cyclone 198913 1990 Season Cyclone 199002 >

Help